Time;durP1;ratioP1;P1;durP2;ratioP2;P2;SDS_P1;SDS_P2;PMS_P1;PMS_P2;Temp;Humidity;BMP_temperature;BMP_pressure;BME280_temperature;BME280_humidity;BME280_pressure;Samples;Min_cycle;Max_cycle;Signal;HPM_P1;HPM_P2
2022/05/15 00:02:10;;;;;;;;;;;8.70;99.90;;;;;;5055223;28;19916;-73
2022/05/15 00:04:35;;;;;;;;;;;8.70;99.90;;;;;;5052439;28;19909;-73
2022/05/15 00:07:01;;;;;;;;;;;8.70;99.90;;;;;;5052992;28;20381;-73
2022/05/15 00:09:27;;;;;;;;;;;8.70;99.90;;;;;;5052565;28;19913;-73
2022/05/15 00:11:52;;;;;;;;;;;8.60;99.90;;;;;;5052359;28;19912;-73
2022/05/15 00:14:18;;;;;;;;;;;8.60;99.90;;;;;;5052140;28;19917;-73
2022/05/15 00:16:44;;;;;;;;;;;8.60;99.90;;;;;;5052699;28;19912;-73
2022/05/15 00:19:09;;;;;;;;;;;8.60;99.90;;;;;;5052721;28;19919;-73
2022/05/15 00:21:36;;;;;;;;;;;8.50;99.90;;;;;;5052292;28;19909;-73
2022/05/15 00:24:03;;;;;;;;;;;8.50;99.90;;;;;;5051678;28;19912;-73
2022/05/15 00:26:29;;;;;;;;;;;8.50;99.90;;;;;;5052180;28;20003;-73
2022/05/15 00:28:54;;;;;;;;;;;8.50;99.90;;;;;;5052520;28;20012;-73
2022/05/15 00:31:20;;;;;;;;;;;8.50;99.90;;;;;;5052701;28;20352;-73
2022/05/15 00:33:45;;;;;;;;;;;8.50;99.90;;;;;;5051863;28;19913;-73
2022/05/15 00:36:11;;;;;;;;;;;8.60;99.90;;;;;;5052532;28;19958;-73
2022/05/15 00:38:37;;;;;;;;;;;8.50;99.90;;;;;;5052259;28;19909;-73
2022/05/15 00:41:02;;;;;;;;;;;8.50;99.90;;;;;;5052419;28;19909;-73
2022/05/15 00:43:40;;;;;;;;;;;8.50;99.90;;;;;;5051509;28;19915;-73
2022/05/15 00:46:07;;;;;;;;;;;8.40;99.90;;;;;;5047284;28;19909;-73
2022/05/15 00:48:32;;;;;;;;;;;8.30;99.90;;;;;;5052279;28;19919;-73
2022/05/15 00:51:00;;;;;;;;;;;8.20;99.90;;;;;;5052462;28;20008;-73
2022/05/15 00:53:26;;;;;;;;;;;8.30;99.90;;;;;;5051364;28;20259;-73
2022/05/15 00:55:52;;;;;;;;;;;8.30;99.90;;;;;;5052298;28;19967;-73
2022/05/15 00:58:21;;;;;;;;;;;8.30;99.90;;;;;;5052328;28;19984;-73
2022/05/15 01:00:46;;;;;;;;;;;8.30;99.90;;;;;;5051884;28;19909;-73
2022/05/15 01:03:13;;;;;;;;;;;8.30;99.90;;;;;;5051238;28;19916;-73
2022/05/15 01:05:50;;;;;;;;;;;8.20;99.90;;;;;;5052177;28;20354;-73
2022/05/15 01:08:16;;;;;;;;;;;8.20;99.90;;;;;;5051921;28;20179;-73
2022/05/15 01:10:44;;;;;;;;;;;8.30;99.90;;;;;;5052124;28;19915;-73
2022/05/15 01:13:10;;;;;;;;;;;8.10;99.90;;;;;;5051062;28;19909;-73
2022/05/15 01:15:36;;;;;;;;;;;8.00;99.90;;;;;;5052069;28;19994;-73
2022/05/15 01:18:02;;;;;;;;;;;8.00;99.90;;;;;;5052133;28;19909;-73
2022/05/15 01:20:29;;;;;;;;;;;8.00;99.90;;;;;;5052345;28;19908;-73
2022/05/15 01:22:54;;;;;;;;;;;8.00;99.90;;;;;;5051001;28;20374;-73
2022/05/15 01:25:22;;;;;;;;;;;7.90;99.90;;;;;;5051547;28;19919;-73
2022/05/15 01:27:49;;;;;;;;;;;7.90;99.90;;;;;;5052321;28;19913;-73
2022/05/15 01:30:15;;;;;;;;;;;7.80;99.90;;;;;;5053382;28;19909;-73
2022/05/15 01:32:40;;;;;;;;;;;7.70;99.90;;;;;;5056590;28;19913;-73
2022/05/15 01:35:06;;;;;;;;;;;7.60;99.90;;;;;;5051373;28;19913;-73
2022/05/15 01:37:32;;;;;;;;;;;7.60;99.90;;;;;;5051824;28;20374;-73
2022/05/15 01:39:58;;;;;;;;;;;7.60;99.90;;;;;;5054078;28;19987;-73
2022/05/15 01:42:24;;;;;;;;;;;7.70;99.90;;;;;;5055228;28;19909;-72
2022/05/15 01:44:49;;;;;;;;;;;7.70;99.90;;;;;;5053988;28;20302;-72
2022/05/15 01:47:15;;;;;;;;;;;7.60;99.90;;;;;;5055941;28;19951;-73
2022/05/15 01:49:41;;;;;;;;;;;7.60;99.90;;;;;;5055604;28;20282;-72
2022/05/15 01:52:07;;;;;;;;;;;7.50;99.90;;;;;;5055226;28;19915;-72
2022/05/15 01:54:32;;;;;;;;;;;7.50;99.90;;;;;;5054721;28;19913;-73
2022/05/15 01:56:58;;;;;;;;;;;7.50;99.90;;;;;;5055454;28;19909;-73
2022/05/15 01:59:23;;;;;;;;;;;7.50;99.90;;;;;;5055279;28;19909;-73
2022/05/15 02:01:49;;;;;;;;;;;7.30;99.90;;;;;;5054969;28;19916;-73
2022/05/15 02:04:14;;;;;;;;;;;7.30;99.90;;;;;;5053646;28;19979;-72
2022/05/15 02:06:40;;;;;;;;;;;7.30;99.90;;;;;;5055423;28;19916;-72
2022/05/15 02:09:06;;;;;;;;;;;7.30;99.90;;;;;;5055094;28;20281;-72
2022/05/15 02:11:31;;;;;;;;;;;7.30;99.90;;;;;;5058479;28;19908;-73
2022/05/15 02:13:57;;;;;;;;;;;7.30;99.90;;;;;;5073767;28;20281;-72
2022/05/15 02:16:22;;;;;;;;;;;7.30;99.90;;;;;;5074402;28;19916;-73
2022/05/15 02:18:48;;;;;;;;;;;7.30;99.90;;;;;;5074365;28;19974;-72
2022/05/15 02:21:13;;;;;;;;;;;7.20;99.90;;;;;;5074025;28;19913;-72
2022/05/15 02:23:39;;;;;;;;;;;7.20;99.90;;;;;;5073361;28;20105;-72
2022/05/15 02:26:04;;;;;;;;;;;7.30;99.90;;;;;;5074009;28;19916;-72
2022/05/15 02:28:30;;;;;;;;;;;7.20;99.90;;;;;;5065815;28;19913;-72
2022/05/15 02:30:55;;;;;;;;;;;7.10;99.90;;;;;;5054813;28;19963;-73
2022/05/15 02:33:21;;;;;;;;;;;7.10;99.90;;;;;;5054005;28;19908;-73
2022/05/15 02:35:46;;;;;;;;;;;7.10;99.90;;;;;;5054798;28;20015;-72
2022/05/15 02:38:12;;;;;;;;;;;7.20;99.90;;;;;;5055011;28;19970;-72
2022/05/15 02:40:38;;;;;;;;;;;7.10;99.90;;;;;;5054706;28;19959;-72
2022/05/15 02:43:03;;;;;;;;;;;7.10;99.90;;;;;;5054323;28;19945;-72
2022/05/15 02:45:29;;;;;;;;;;;7.00;99.90;;;;;;5054242;28;19909;-73
2022/05/15 02:47:54;;;;;;;;;;;7.00;99.90;;;;;;5054524;28;19912;-72
2022/05/15 02:53:04;;;;;;;;;;;7.00;99.90;;;;;;5054018;28;19996;-72
2022/05/15 02:55:29;;;;;;;;;;;7.00;99.90;;;;;;5054125;28;20007;-72
2022/05/15 02:57:55;;;;;;;;;;;7.00;99.90;;;;;;5054426;28;20003;-72
2022/05/15 03:00:22;;;;;;;;;;;6.90;99.90;;;;;;5056283;28;19909;-72
2022/05/15 03:02:48;;;;;;;;;;;6.90;99.90;;;;;;5053593;28;20004;-73
2022/05/15 03:05:14;;;;;;;;;;;6.90;99.90;;;;;;5053718;28;20007;-72
2022/05/15 03:07:40;;;;;;;;;;;7.00;99.90;;;;;;5054455;28;20413;-72
2022/05/15 03:10:06;;;;;;;;;;;7.00;99.90;;;;;;5053829;28;20024;-72
2022/05/15 03:12:31;;;;;;;;;;;6.90;99.90;;;;;;5053523;28;19909;-73
2022/05/15 03:14:57;;;;;;;;;;;6.90;99.90;;;;;;5053421;28;20015;-72
2022/05/15 03:17:22;;;;;;;;;;;6.90;99.90;;;;;;5054186;28;19959;-73
2022/05/15 03:19:48;;;;;;;;;;;6.80;99.90;;;;;;5073055;28;19915;-72
2022/05/15 03:22:14;;;;;;;;;;;6.70;99.90;;;;;;5072608;28;20361;-72
2022/05/15 03:24:39;;;;;;;;;;;6.90;99.90;;;;;;5072363;28;20278;-72
2022/05/15 03:27:05;;;;;;;;;;;6.90;99.90;;;;;;5073081;28;19909;-72
2022/05/15 03:29:30;;;;;;;;;;;6.90;99.90;;;;;;5058166;28;20358;-72
2022/05/15 03:31:56;;;;;;;;;;;6.90;99.90;;;;;;5058599;28;19971;-72
2022/05/15 03:34:22;;;;;;;;;;;6.90;99.90;;;;;;5053201;28;19913;-72
2022/05/15 03:36:48;;;;;;;;;;;6.90;99.90;;;;;;5053522;28;20420;-72
2022/05/15 03:39:15;;;;;;;;;;;6.80;99.90;;;;;;5053394;28;19940;-72
2022/05/15 03:41:41;;;;;;;;;;;6.80;99.90;;;;;;5053330;28;19996;-72
2022/05/15 03:44:07;;;;;;;;;;;6.90;99.90;;;;;;5052643;28;19908;-72
2022/05/15 03:46:33;;;;;;;;;;;6.90;99.90;;;;;;5053508;28;19909;-72
2022/05/15 03:48:58;;;;;;;;;;;6.90;99.90;;;;;;5053200;28;19917;-72
2022/05/15 03:51:24;;;;;;;;;;;6.80;99.90;;;;;;5052763;28;19909;-72
2022/05/15 03:53:50;;;;;;;;;;;6.80;99.90;;;;;;5051988;28;19940;-72
2022/05/15 03:56:16;;;;;;;;;;;6.80;99.90;;;;;;5053245;28;19913;-72
2022/05/15 03:58:41;;;;;;;;;;;6.80;99.90;;;;;;5053259;28;19962;-72
2022/05/15 04:01:07;;;;;;;;;;;6.80;99.90;;;;;;5057837;28;19913;-72
2022/05/15 04:03:33;;;;;;;;;;;6.70;99.90;;;;;;5051495;28;19913;-72
2022/05/15 04:05:58;;;;;;;;;;;6.80;99.90;;;;;;5052776;28;19915;-72
2022/05/15 04:08:24;;;;;;;;;;;6.80;99.90;;;;;;5052567;28;20397;-72
2022/05/15 04:10:50;;;;;;;;;;;6.90;99.90;;;;;;5052866;28;19913;-72
2022/05/15 04:13:15;;;;;;;;;;;6.90;99.90;;;;;;5052013;28;19909;-72
2022/05/15 04:15:41;;;;;;;;;;;6.90;99.90;;;;;;5052816;28;19916;-72
2022/05/15 04:18:09;;;;;;;;;;;7.00;99.90;;;;;;5052667;28;19962;-72
2022/05/15 04:20:34;;;;;;;;;;;7.10;99.90;;;;;;5052553;28;20393;-72
2022/05/15 04:23:00;;;;;;;;;;;7.10;99.90;;;;;;5052022;28;20149;-72
2022/05/15 04:25:25;;;;;;;;;;;7.20;99.90;;;;;;5052152;28;19916;-72
2022/05/15 04:27:51;;;;;;;;;;;7.30;99.90;;;;;;5052644;28;20376;-72
2022/05/15 04:30:18;;;;;;;;;;;7.40;99.90;;;;;;5052244;28;19962;-72
2022/05/15 04:32:44;;;;;;;;;;;7.40;99.90;;;;;;5045664;28;20267;-72
2022/05/15 04:35:10;;;;;;;;;;;7.50;99.90;;;;;;5051640;28;20054;-72
2022/05/15 04:37:35;;;;;;;;;;;7.60;99.90;;;;;;5071685;28;20301;-72
2022/05/15 04:40:01;;;;;;;;;;;7.70;99.90;;;;;;5071476;28;19916;-72
2022/05/15 04:42:27;;;;;;;;;;;7.70;99.90;;;;;;5071235;28;19915;-72
2022/05/15 04:44:53;;;;;;;;;;;7.80;99.90;;;;;;5070979;28;19909;-72
2022/05/15 04:47:18;;;;;;;;;;;7.90;99.90;;;;;;5071329;28;19909;-72
2022/05/15 04:49:44;;;;;;;;;;;8.00;99.90;;;;;;5071154;28;19966;-72
2022/05/15 04:52:10;;;;;;;;;;;8.10;99.90;;;;;;5070893;28;20276;-72
2022/05/15 04:54:36;;;;;;;;;;;8.30;99.90;;;;;;5070395;28;20270;-72
2022/05/15 04:57:02;;;;;;;;;;;8.40;99.90;;;;;;5071205;28;19913;-72
2022/05/15 04:59:27;;;;;;;;;;;8.50;99.90;;;;;;5056573;28;20370;-72
2022/05/15 05:01:53;;;;;;;;;;;8.60;99.90;;;;;;5051518;28;20349;-72
2022/05/15 05:04:18;;;;;;;;;;;8.60;99.90;;;;;;5051280;28;19909;-73
2022/05/15 05:06:44;;;;;;;;;;;8.70;99.90;;;;;;5052166;28;19963;-72
2022/05/15 05:09:11;;;;;;;;;;;8.80;99.90;;;;;;5051721;28;19944;-72
2022/05/15 05:11:36;;;;;;;;;;;8.90;99.90;;;;;;5051896;28;19913;-72
2022/05/15 05:14:02;;;;;;;;;;;9.00;99.90;;;;;;5051190;28;19909;-72
2022/05/15 05:16:27;;;;;;;;;;;9.20;99.90;;;;;;5051892;28;19955;-72
2022/05/15 05:18:53;;;;;;;;;;;9.50;99.90;;;;;;5051680;28;19999;-72
2022/05/15 05:21:18;;;;;;;;;;;9.60;99.90;;;;;;5051373;28;19909;-73
2022/05/15 05:23:44;;;;;;;;;;;9.70;99.90;;;;;;5050917;28;19909;-73
2022/05/15 05:26:09;;;;;;;;;;;9.90;99.90;;;;;;5051837;28;20407;-73
2022/05/15 05:28:35;;;;;;;;;;;10.00;99.90;;;;;;5052447;28;19916;-73
2022/05/15 05:31:00;;;;;;;;;;;10.10;99.90;;;;;;5051641;28;20320;-73
2022/05/15 05:33:26;;;;;;;;;;;10.50;99.90;;;;;;5050827;28;20428;-72
2022/05/15 05:35:53;;;;;;;;;;;10.60;99.90;;;;;;5051794;28;19967;-73
2022/05/15 05:38:18;;;;;;;;;;;10.50;99.90;;;;;;5051728;28;19909;-73
2022/05/15 05:40:44;;;;;;;;;;;10.60;99.90;;;;;;5051497;28;19909;-72
2022/05/15 05:43:09;;;;;;;;;;;10.90;99.90;;;;;;5050728;28;20333;-73
2022/05/15 05:45:35;;;;;;;;;;;12.40;99.90;;;;;;5051737;28;19944;-73
2022/05/15 05:48:01;;;;;;;;;;;12.50;99.90;;;;;;5044872;28;19920;-73
2022/05/15 05:50:27;;;;;;;;;;;12.10;99.90;;;;;;5070625;28;19916;-73
2022/05/15 05:52:54;;;;;;;;;;;11.70;99.90;;;;;;5070230;28;19917;-73
2022/05/15 05:55:20;;;;;;;;;;;11.60;99.90;;;;;;5069943;28;20434;-73
2022/05/15 05:57:46;;;;;;;;;;;11.60;99.90;;;;;;5070746;28;19909;-72
2022/05/15 06:00:13;;;;;;;;;;;11.60;99.90;;;;;;5049401;28;19955;-73
2022/05/15 06:02:39;;;;;;;;;;;11.80;99.90;;;;;;5058572;28;19909;-73
2022/05/15 06:05:05;;;;;;;;;;;11.90;99.90;;;;;;5050772;28;20279;-72
2022/05/15 06:07:31;;;;;;;;;;;12.20;99.90;;;;;;5051544;28;20006;-73
2022/05/15 06:09:56;;;;;;;;;;;12.90;99.90;;;;;;5051263;28;20013;-73
2022/05/15 06:12:23;;;;;;;;;;;13.20;99.90;;;;;;5051040;28;19909;-73
2022/05/15 06:14:49;;;;;;;;;;;13.50;99.90;;;;;;5050783;28;19956;-73
2022/05/15 06:17:19;;;;;;;;;;;13.70;99.90;;;;;;5051103;28;20002;-73
2022/05/15 06:19:44;;;;;;;;;;;13.50;99.90;;;;;;5051384;28;19909;-72
2022/05/15 06:22:10;;;;;;;;;;;13.30;99.90;;;;;;5050835;28;20322;-73
2022/05/15 06:24:35;;;;;;;;;;;13.40;99.90;;;;;;5050965;28;19916;-73
2022/05/15 06:27:02;;;;;;;;;;;13.50;99.90;;;;;;5055060;28;19916;-73
2022/05/15 06:29:28;;;;;;;;;;;13.70;99.90;;;;;;5059936;28;19956;-73
2022/05/15 06:31:53;;;;;;;;;;;13.80;99.90;;;;;;5053982;28;19970;-73
2022/05/15 06:34:19;;;;;;;;;;;14.10;99.90;;;;;;5053987;28;20358;-73
2022/05/15 06:36:44;;;;;;;;;;;14.30;99.90;;;;;;5054691;28;19917;-73
2022/05/15 06:39:10;;;;;;;;;;;14.30;99.90;;;;;;5054438;28;19966;-73
2022/05/15 06:41:36;;;;;;;;;;;14.50;99.90;;;;;;5054088;28;19912;-73
2022/05/15 06:44:02;;;;;;;;;;;14.50;99.90;;;;;;5053976;28;19984;-73
2022/05/15 06:46:28;;;;;;;;;;;14.80;99.90;;;;;;5054552;28;19931;-73
2022/05/15 06:48:53;;;;;;;;;;;14.90;99.90;;;;;;5054252;28;20052;-72
2022/05/15 06:51:19;;;;;;;;;;;15.70;99.90;;;;;;5054313;28;20334;-72
2022/05/15 06:53:45;;;;;;;;;;;17.20;99.90;;;;;;5053688;28;19909;-72
2022/05/15 06:58:55;;;;;;;;;;;19.00;96.00;;;;;;5054272;28;19916;-71
2022/05/15 07:01:21;;;;;;;;;;;19.10;94.40;;;;;;5054295;28;19909;-71
2022/05/15 07:03:47;;;;;;;;;;;19.30;96.10;;;;;;5047606;28;20389;-72
2022/05/15 07:06:13;;;;;;;;;;;20.00;94.70;;;;;;5053790;28;19916;-72
2022/05/15 07:08:39;;;;;;;;;;;20.40;90.80;;;;;;5053888;28;19909;-72
2022/05/15 07:11:05;;;;;;;;;;;20.30;93.20;;;;;;5053747;28;19909;-72
2022/05/15 07:13:32;;;;;;;;;;;21.20;91.50;;;;;;5052714;28;19916;-72
2022/05/15 07:15:57;;;;;;;;;;;21.00;90.50;;;;;;5053538;28;19920;-72
2022/05/15 07:18:23;;;;;;;;;;;21.00;87.00;;;;;;5053856;28;19909;-72
2022/05/15 07:20:52;;;;;;;;;;;20.90;90.40;;;;;;5053694;28;19961;-72
2022/05/15 07:23:19;;;;;;;;;;;21.00;90.60;;;;;;5052418;28;19954;-72
2022/05/15 07:25:45;;;;;;;;;;;21.40;87.80;;;;;;5053823;28;19948;-72
2022/05/15 07:28:10;;;;;;;;;;;21.60;85.30;;;;;;5053523;28;20358;-72
2022/05/15 07:30:36;;;;;;;;;;;21.40;89.20;;;;;;5056388;28;20362;-72
2022/05/15 07:33:01;;;;;;;;;;;22.10;85.30;;;;;;5052936;28;19916;-72
2022/05/15 07:35:27;;;;;;;;;;;22.20;81.90;;;;;;5052979;28;19923;-72
2022/05/15 07:37:52;;;;;;;;;;;22.80;82.00;;;;;;5052170;28;19944;-72
2022/05/15 07:40:18;;;;;;;;;;;22.50;81.80;;;;;;5053116;28;20380;-72
2022/05/15 07:42:44;;;;;;;;;;;23.10;79.60;;;;;;5052469;28;19915;-72
2022/05/15 07:45:10;;;;;;;;;;;23.40;76.10;;;;;;5052719;28;19988;-72
2022/05/15 07:47:35;;;;;;;;;;;23.70;80.70;;;;;;5053263;28;20386;-72
2022/05/15 07:50:01;;;;;;;;;;;24.00;81.40;;;;;;5053125;28;19923;-72
2022/05/15 07:52:26;;;;;;;;;;;24.50;78.20;;;;;;5045926;28;20373;-73
2022/05/15 07:54:52;;;;;;;;;;;24.80;78.80;;;;;;5051921;28;19919;-73
2022/05/15 07:57:18;;;;;;;;;;;23.90;73.00;;;;;;5051694;28;19908;-72
2022/05/15 07:59:43;;;;;;;;;;;23.80;75.90;;;;;;5052547;28;19984;-73
2022/05/15 08:02:09;;;;;;;;;;;24.70;73.50;;;;;;5051809;28;19955;-72
2022/05/15 08:08:00;;;;;;;;;;;24.30;73.90;;;;;;5052023;28;20347;-72
2022/05/15 08:10:05;;;;;;;;;;;24.20;72.20;;;;;;5052292;28;20344;-73
2022/05/15 08:12:30;;;;;;;;;;;25.40;71.00;;;;;;5052157;28;19953;-73
2022/05/15 08:14:55;;;;;;;;;;;25.40;68.30;;;;;;5052435;28;20423;-73
2022/05/15 08:17:21;;;;;;;;;;;25.00;73.10;;;;;;5052960;28;19913;-73
2022/05/15 08:25:17;;;;;;;;;;;24.70;73.10;;;;;;5051545;28;20449;-73
2022/05/15 08:27:43;;;;;;;;;;;24.30;68.60;;;;;;5052221;28;19999;-73
2022/05/15 08:30:09;;;;;;;;;;;25.40;73.10;;;;;;5051851;28;19959;-73
2022/05/15 08:32:34;;;;;;;;;;;26.60;66.70;;;;;;5051347;28;19916;-72
2022/05/15 08:35:00;;;;;;;;;;;26.30;66.20;;;;;;5070525;28;20386;-72
2022/05/15 08:37:26;;;;;;;;;;;25.80;67.80;;;;;;5071155;28;19915;-73
2022/05/15 08:39:53;;;;;;;;;;;26.40;69.20;;;;;;5070953;28;20384;-73
2022/05/15 08:42:23;;;;;;;;;;;26.60;66.20;;;;;;5070584;28;20038;-73
2022/05/15 08:44:51;;;;;;;;;;;27.30;62.70;;;;;;5070171;28;19908;-72
2022/05/15 08:47:21;;;;;;;;;;;27.10;65.80;;;;;;5070708;28;19916;-73
2022/05/15 08:49:55;;;;;;;;;;;27.30;64.50;;;;;;5070877;28;20336;-72
2022/05/15 08:52:32;;;;;;;;;;;26.40;68.10;;;;;;5043208;28;19917;-72
2022/05/15 08:55:12;;;;;;;;;;;26.40;63.80;;;;;;5044923;28;19924;-72
2022/05/15 08:57:44;;;;;;;;;;;27.50;63.20;;;;;;5057946;28;19954;-72
2022/05/15 09:00:12;;;;;;;;;;;27.90;66.30;;;;;;5053101;28;19913;-72
2022/05/15 09:02:40;;;;;;;;;;;28.30;62.20;;;;;;5051142;28;19909;-72
2022/05/15 09:05:06;;;;;;;;;;;27.40;64.30;;;;;;5049744;28;19935;-73
2022/05/15 09:07:50;;;;;;;;;;;28.20;59.40;;;;;;5050441;28;19916;-73
2022/05/15 09:10:21;;;;;;;;;;;28.90;60.50;;;;;;5063216;28;19915;-72
2022/05/15 09:12:55;;;;;;;;;;;28.50;64.00;;;;;;5045540;28;19919;-72
2022/05/15 09:15:24;;;;;;;;;;;28.40;63.00;;;;;;5051587;28;19971;-72
2022/05/15 09:17:58;;;;;;;;;;;28.20;61.10;;;;;;5051979;28;20317;-72
2022/05/15 09:20:24;;;;;;;;;;;28.10;63.80;;;;;;5051971;28;20499;-72
2022/05/15 09:22:57;;;;;;;;;;;27.40;61.20;;;;;;5051223;28;19909;-72
2022/05/15 09:25:24;;;;;;;;;;;27.50;65.70;;;;;;5051263;28;19916;-72
2022/05/15 09:28:00;;;;;;;;;;;27.70;62.80;;;;;;5051877;28;20325;-73
2022/05/15 09:30:31;;;;;;;;;;;28.20;59.30;;;;;;5049116;28;19916;-72
2022/05/15 09:32:57;;;;;;;;;;;27.50;63.20;;;;;;5051108;28;20007;-73
2022/05/15 09:35:30;;;;;;;;;;;27.80;63.80;;;;;;5051060;28;20003;-72
2022/05/15 09:40:42;;;;;;;;;;;28.40;63.40;;;;;;5051110;28;19982;-73
2022/05/15 09:43:32;;;;;;;;;;;29.00;61.70;;;;;;5050633;28;19934;-73
2022/05/15 09:45:58;;;;;;;;;;;29.60;66.00;;;;;;5051689;28;19913;-72
2022/05/15 09:48:28;;;;;;;;;;;27.50;58.40;;;;;;5051190;28;19969;-72
2022/05/15 09:50:59;;;;;;;;;;;27.70;67.40;;;;;;5051849;28;19913;-73
2022/05/15 09:53:30;;;;;;;;;;;28.80;67.80;;;;;;5050822;28;19985;-73
2022/05/15 09:55:57;;;;;;;;;;;28.70;57.20;;;;;;5051243;28;20289;-73
2022/05/15 09:58:23;;;;;;;;;;;29.30;64.20;;;;;;5051219;28;19916;-73
2022/05/15 10:00:48;;;;;;;;;;;28.40;62.10;;;;;;5053451;28;19909;-73
2022/05/15 10:03:21;;;;;;;;;;;28.80;62.00;;;;;;5054315;28;20381;-73
2022/05/15 10:05:56;;;;;;;;;;;28.00;62.50;;;;;;5055044;28;19913;-73
2022/05/15 10:08:27;;;;;;;;;;;28.00;61.10;;;;;;5074395;28;20044;-72
2022/05/15 10:11:03;;;;;;;;;;;29.00;63.80;;;;;;5074065;28;19965;-72
2022/05/15 10:13:34;;;;;;;;;;;28.20;58.60;;;;;;5073266;28;19908;-72
2022/05/15 10:16:03;;;;;;;;;;;28.40;63.40;;;;;;5074174;28;19913;-72
2022/05/15 10:18:32;;;;;;;;;;;27.90;60.80;;;;;;5073990;28;19908;-73
2022/05/15 10:21:00;;;;;;;;;;;28.90;62.50;;;;;;5074168;28;19916;-73
2022/05/15 10:23:45;;;;;;;;;;;28.50;59.70;;;;;;5073425;28;19908;-73
2022/05/15 10:26:19;;;;;;;;;;;28.30;59.40;;;;;;5073798;28;19943;-74
2022/05/15 10:28:59;;;;;;;;;;;28.60;63.10;;;;;;5065515;28;19912;-73
2022/05/15 10:31:30;;;;;;;;;;;27.90;58.10;;;;;;5052663;28;19908;-74
2022/05/15 10:33:57;;;;;;;;;;;28.30;59.50;;;;;;5054430;28;19908;-74
2022/05/15 10:36:29;;;;;;;;;;;27.60;59.10;;;;;;5054692;28;20008;-73
2022/05/15 10:39:11;;;;;;;;;;;27.70;60.40;;;;;;5054715;28;19909;-72
2022/05/15 10:41:37;;;;;;;;;;;28.20;63.30;;;;;;5054067;28;19944;-73
2022/05/15 10:44:21;;;;;;;;;;;28.30;58.80;;;;;;5054033;28;19998;-72
2022/05/15 10:46:46;;;;;;;;;;;28.40;58.40;;;;;;5054643;28;19913;-73
2022/05/15 10:49:28;;;;;;;;;;;29.00;62.50;;;;;;5054652;28;19924;-73
2022/05/15 10:52:06;;;;;;;;;;;29.30;61.30;;;;;;5054514;28;20225;-72
2022/05/15 10:58:23;;;;;;;;;;;27.90;60.20;;;;;;5047022;28;19915;-72
2022/05/15 11:00:59;;;;;;;;;;;28.00;60.70;;;;;;5046753;28;20078;-72
2022/05/15 11:03:37;;;;;;;;;;;27.70;61.90;;;;;;5053176;28;19958;-72
2022/05/15 11:06:21;;;;;;;;;;;27.70;61.40;;;;;;5054245;28;19913;-72
2022/05/15 11:09:01;;;;;;;;;;;27.20;59.30;;;;;;5053828;28;19918;-72
2022/05/15 11:11:34;;;;;;;;;;;28.20;64.50;;;;;;5053146;28;19909;-72
2022/05/15 11:14:12;;;;;;;;;;;28.80;60.00;;;;;;5048043;28;20218;-73
2022/05/15 11:16:41;;;;;;;;;;;28.80;55.00;;;;;;5053821;28;19912;-73
2022/05/15 11:19:16;;;;;;;;;;;28.70;58.60;;;;;;5053942;28;19917;-73
2022/05/15 11:21:47;;;;;;;;;;;28.70;59.70;;;;;;5053485;28;19908;-73
2022/05/15 11:24:17;;;;;;;;;;;29.20;60.80;;;;;;5053086;28;19916;-73
2022/05/15 11:26:48;;;;;;;;;;;29.20;57.20;;;;;;5053591;28;20357;-73
2022/05/15 11:29:14;;;;;;;;;;;28.60;60.40;;;;;;5053864;28;20495;-73
2022/05/15 11:31:44;;;;;;;;;;;27.90;55.70;;;;;;5059219;28;19923;-73
2022/05/15 11:34:10;;;;;;;;;;;28.70;57.10;;;;;;5070876;28;19962;-73
2022/05/15 11:36:36;;;;;;;;;;;28.00;58.90;;;;;;5072741;28;19913;-73
2022/05/15 11:39:05;;;;;;;;;;;28.40;56.50;;;;;;5072757;28;19908;-73
2022/05/15 11:41:33;;;;;;;;;;;29.40;58.30;;;;;;5072306;28;19912;-73
2022/05/15 11:44:00;;;;;;;;;;;29.40;56.60;;;;;;5072292;28;19908;-73
2022/05/15 11:46:45;;;;;;;;;;;29.50;60.50;;;;;;5072523;28;19909;-73
2022/05/15 11:49:31;;;;;;;;;;;28.00;58.70;;;;;;5071385;28;20320;-72
2022/05/15 11:52:12;;;;;;;;;;;28.40;56.80;;;;;;5071231;28;19908;-73
2022/05/15 11:54:42;;;;;;;;;;;28.60;59.10;;;;;;5071715;28;20337;-73
2022/05/15 11:57:13;;;;;;;;;;;28.00;55.80;;;;;;5071895;28;19913;-73
2022/05/15 11:59:46;;;;;;;;;;;27.20;56.90;;;;;;5056021;28;20003;-73
2022/05/15 12:02:20;;;;;;;;;;;28.20;59.70;;;;;;5047904;28;19913;-73
2022/05/15 12:04:46;;;;;;;;;;;28.50;57.40;;;;;;5052736;28;19908;-73
2022/05/15 12:07:14;;;;;;;;;;;28.60;58.20;;;;;;5052908;28;19909;-73
2022/05/15 12:09:39;;;;;;;;;;;28.30;57.10;;;;;;5052841;28;19913;-72
2022/05/15 12:12:23;;;;;;;;;;;28.80;55.40;;;;;;5052285;28;20350;-73
2022/05/15 12:15:10;;;;;;;;;;;28.10;58.00;;;;;;5052341;28;19917;-73
2022/05/15 12:18:02;;;;;;;;;;;28.20;59.60;;;;;;5052537;28;19913;-73
2022/05/15 12:20:28;;;;;;;;;;;28.50;59.40;;;;;;5052613;28;19955;-73
2022/05/15 12:22:55;;;;;;;;;;;29.00;53.20;;;;;;5051647;28;19908;-73
2022/05/15 12:25:26;;;;;;;;;;;30.90;52.80;;;;;;5052130;28;19982;-74
2022/05/15 12:27:54;;;;;;;;;;;31.50;49.40;;;;;;5052616;28;19917;-74
2022/05/15 12:30:22;;;;;;;;;;;33.00;51.70;;;;;;5049720;28;19916;-73
2022/05/15 12:32:50;;;;;;;;;;;32.20;48.90;;;;;;5052271;28;19909;-73
2022/05/15 12:35:21;;;;;;;;;;;33.40;48.90;;;;;;5052319;28;19917;-73
2022/05/15 12:37:50;;;;;;;;;;;34.00;47.90;;;;;;5052753;28;19913;-73
2022/05/15 12:40:22;;;;;;;;;;;34.30;46.30;;;;;;5052453;28;20000;-73
2022/05/15 12:42:48;;;;;;;;;;;33.30;45.60;;;;;;5055186;28;19908;-73
2022/05/15 12:45:16;;;;;;;;;;;33.60;45.80;;;;;;5054643;28;19915;-73
2022/05/15 12:47:42;;;;;;;;;;;35.10;47.00;;;;;;5052145;28;19916;-73
2022/05/15 12:50:10;;;;;;;;;;;34.90;45.00;;;;;;5052146;28;19917;-73
2022/05/15 12:52:36;;;;;;;;;;;34.30;45.50;;;;;;5054912;28;19912;-73
2022/05/15 12:55:04;;;;;;;;;;;34.50;43.30;;;;;;5070807;28;19912;-74
2022/05/15 12:57:30;;;;;;;;;;;33.80;43.00;;;;;;5071057;28;19913;-74
2022/05/15 12:59:56;;;;;;;;;;;34.40;44.20;;;;;;5055974;28;19909;-74
2022/05/15 13:02:23;;;;;;;;;;;34.30;42.80;;;;;;5057966;28;19916;-73
2022/05/15 13:04:50;;;;;;;;;;;33.70;43.30;;;;;;5051589;28;20187;-73
2022/05/15 13:07:21;;;;;;;;;;;33.90;43.60;;;;;;5051888;28;19915;-73
2022/05/15 13:09:55;;;;;;;;;;;33.70;46.60;;;;;;5051932;28;20263;-73
2022/05/15 13:12:21;;;;;;;;;;;33.30;42.30;;;;;;5051163;28;19952;-73
2022/05/15 13:14:47;;;;;;;;;;;34.20;45.90;;;;;;5051300;28;20322;-74
2022/05/15 13:17:18;;;;;;;;;;;34.80;44.60;;;;;;5051956;28;19916;-73
2022/05/15 13:19:45;;;;;;;;;;;34.30;43.50;;;;;;5051913;28;19909;-73
2022/05/15 13:22:14;;;;;;;;;;;35.00;46.50;;;;;;5051197;28;19913;-74
2022/05/15 13:24:40;;;;;;;;;;;35.60;40.80;;;;;;5051520;28;20004;-75
2022/05/15 13:27:05;;;;;;;;;;;35.90;42.80;;;;;;5051416;28;19940;-73
2022/05/15 13:29:32;;;;;;;;;;;34.80;42.90;;;;;;5052804;28;20320;-74
2022/05/15 13:31:58;;;;;;;;;;;34.80;41.20;;;;;;5053144;28;19909;-74
2022/05/15 13:34:27;;;;;;;;;;;34.80;39.10;;;;;;5053160;28;20289;-74
2022/05/15 13:36:54;;;;;;;;;;;34.30;41.90;;;;;;5072799;28;19953;-74
2022/05/15 13:44:51;;;;;;;;;;;34.50;40.70;;;;;;5051270;28;20041;-74
2022/05/15 13:47:17;;;;;;;;;;;34.30;45.80;;;;;;5071329;28;19909;-74
2022/05/15 13:49:44;;;;;;;;;;;34.90;40.20;;;;;;5074829;28;19916;-74
2022/05/15 13:52:28;;;;;;;;;;;34.90;41.20;;;;;;5074510;28;19954;-75
2022/05/15 13:54:55;;;;;;;;;;;35.00;40.10;;;;;;5069366;28;19919;-75
2022/05/15 13:57:21;;;;;;;;;;;35.10;44.10;;;;;;5055310;28;19912;-75
2022/05/15 13:59:50;;;;;;;;;;;34.80;42.20;;;;;;5055048;28;20397;-74
2022/05/15 14:02:17;;;;;;;;;;;33.60;44.30;;;;;;5054667;28;19909;-74
2022/05/15 14:04:47;;;;;;;;;;;34.50;46.90;;;;;;5054776;28;20003;-74
2022/05/15 14:07:23;;;;;;;;;;;34.60;46.00;;;;;;5055326;28;19909;-75
2022/05/15 14:09:50;;;;;;;;;;;34.90;39.00;;;;;;5055218;28;19916;-75
2022/05/15 14:12:18;;;;;;;;;;;34.80;40.40;;;;;;5054537;28;19909;-74
2022/05/15 14:14:46;;;;;;;;;;;35.00;42.60;;;;;;5067143;28;20002;-74
2022/05/15 14:17:14;;;;;;;;;;;34.00;46.80;;;;;;5074480;28;19943;-74
2022/05/15 14:20:06;;;;;;;;;;;34.10;44.40;;;;;;5074557;28;19915;-74
2022/05/15 14:22:33;;;;;;;;;;;34.50;43.60;;;;;;5073481;28;19948;-75
2022/05/15 14:24:58;;;;;;;;;;;34.60;42.60;;;;;;5073442;28;21268;-75
2022/05/15 14:27:24;;;;;;;;;;;34.50;42.90;;;;;;5074072;28;19909;-75
2022/05/15 14:29:50;;;;;;;;;;;34.60;41.80;;;;;;5059694;28;20005;-74
2022/05/15 14:32:20;;;;;;;;;;;34.00;43.60;;;;;;5058649;28;19948;-75
2022/05/15 14:34:46;;;;;;;;;;;33.80;41.00;;;;;;5069676;28;20272;-75
2022/05/15 14:37:11;;;;;;;;;;;33.30;42.90;;;;;;5071247;28;19999;-74
2022/05/15 14:39:37;;;;;;;;;;;34.00;43.10;;;;;;5052439;28;19919;-74
2022/05/15 14:42:03;;;;;;;;;;;33.50;43.60;;;;;;5050128;28;19912;-73
2022/05/15 14:44:28;;;;;;;;;;;33.40;42.80;;;;;;5059927;28;19908;-73
2022/05/15 14:46:55;;;;;;;;;;;33.50;43.80;;;;;;5072293;28;19915;-73
2022/05/15 14:49:21;;;;;;;;;;;33.90;43.20;;;;;;5072058;28;19965;-73
2022/05/15 14:51:46;;;;;;;;;;;32.70;43.20;;;;;;5053368;28;20363;-74